Time;durP1;ratioP1;P1;durP2;ratioP2;P2;SDS_P1;SDS_P2;PMS_P1;PMS_P2;Temp;Humidity;BMP_temperature;BMP_pressure;BME280_temperature;BME280_humidity;BME280_pressure;Samples;Min_cycle;Max_cycle;Signal;HPM_P1;HPM_P2
2023/03/20 00:01:51;;;;;;;1.65;1.30;;;21.70;69.10;;;;;;5053169;28;20032;-74
2023/03/20 00:04:16;;;;;;;1.75;1.15;;;21.70;69.10;;;;;;5052404;28;20447;-74
2023/03/20 00:06:42;;;;;;;3.08;1.17;;;21.70;69.10;;;;;;5053269;28;20385;-74
2023/03/20 00:09:08;;;;;;;1.50;0.93;;;21.70;69.00;;;;;;5053182;28;20052;-74
2023/03/20 00:11:40;;;;;;;1.92;1.10;;;21.70;69.10;;;;;;5053041;28;20075;-74
2023/03/20 00:14:08;;;;;;;2.17;1.10;;;21.70;69.00;;;;;;5068530;28;20476;-73
2023/03/20 00:16:36;;;;;;;1.42;1.23;;;21.80;69.10;;;;;;5068033;28;20477;-74
2023/03/20 00:19:02;;;;;;;1.30;1.10;;;21.70;69.10;;;;;;5074503;28;20045;-74
2023/03/20 00:21:27;;;;;;;1.50;1.08;;;21.80;69.10;;;;;;5065108;28;20375;-74
2023/03/20 00:23:54;;;;;;;1.23;0.93;;;21.80;69.10;;;;;;5065169;28;20036;-73
2023/03/20 00:26:20;;;;;;;1.95;1.00;;;21.70;69.10;;;;;;5048334;28;20409;-73
2023/03/20 00:28:49;;;;;;;1.98;1.30;;;21.80;69.20;;;;;;5048354;28;20017;-73
2023/03/20 00:31:24;;;;;;;1.30;1.20;;;21.80;69.20;;;;;;5048203;28;20025;-74
2023/03/20 00:33:50;;;;;;;1.88;1.60;;;21.80;69.20;;;;;;5047286;28;20021;-74
2023/03/20 00:36:16;;;;;;;1.48;0.90;;;21.80;69.20;;;;;;5065094;28;20068;-74
2023/03/20 00:38:41;;;;;;;1.48;1.00;;;21.80;69.20;;;;;;5064888;28;20497;-74
2023/03/20 00:41:19;;;;;;;1.58;0.95;;;21.80;69.20;;;;;;5064893;28;20366;-73
2023/03/20 00:43:45;;;;;;;2.17;1.10;;;21.80;69.20;;;;;;5047268;28;20063;-74
2023/03/20 00:46:12;;;;;;;2.00;1.15;;;21.80;69.20;;;;;;5047936;28;20021;-73
2023/03/20 00:48:39;;;;;;;2.10;1.20;;;21.80;69.30;;;;;;5064340;28;20021;-74
2023/03/20 00:51:05;;;;;;;1.65;1.20;;;21.80;69.30;;;;;;5047635;28;20057;-74
2023/03/20 00:53:30;;;;;;;2.70;1.33;;;21.80;69.30;;;;;;5032608;28;20060;-74
2023/03/20 00:55:56;;;;;;;3.13;1.10;;;21.80;69.30;;;;;;5032527;28;20033;-74
2023/03/20 00:58:21;;;;;;;1.17;0.90;;;21.80;69.20;;;;;;5047925;28;20021;-74
2023/03/20 01:00:47;;;;;;;1.02;0.70;;;21.80;69.20;;;;;;5064358;28;20025;-74
2023/03/20 01:03:18;;;;;;;1.92;1.00;;;21.80;69.30;;;;;;5064406;28;20473;-73
2023/03/20 01:05:44;;;;;;;4.43;1.27;;;21.80;69.30;;;;;;5063938;28;20056;-74
2023/03/20 01:08:20;;;;;;;1.13;0.90;;;21.80;69.30;;;;;;5064584;28;20028;-74
2023/03/20 01:10:47;;;;;;;3.47;1.40;;;21.80;69.30;;;;;;5047374;28;20025;-73
2023/03/20 01:13:23;;;;;;;1.55;1.10;;;21.80;69.40;;;;;;5051301;28;20017;-74
2023/03/20 01:15:49;;;;;;;2.67;0.88;;;21.80;69.50;;;;;;5050628;28;20017;-74
2023/03/20 01:18:15;;;;;;;1.00;0.90;;;21.80;69.50;;;;;;5046760;28;20100;-73
2023/03/20 01:20:41;;;;;;;1.70;1.13;;;21.80;69.60;;;;;;5064334;28;20544;-74
2023/03/20 01:23:07;;;;;;;1.50;0.90;;;21.80;69.60;;;;;;5047768;28;20037;-74
2023/03/20 01:25:33;;;;;;;1.25;1.10;;;21.80;69.70;;;;;;5064223;28;20029;-73
2023/03/20 01:27:58;;;;;;;1.88;0.90;;;21.80;69.70;;;;;;5047540;28;20052;-74
2023/03/20 01:30:29;;;;;;;1.20;0.90;;;21.80;69.70;;;;;;5064231;28;20117;-73
2023/03/20 01:32:55;;;;;;;2.03;1.10;;;21.80;69.70;;;;;;5064305;28;20033;-74
2023/03/20 01:35:22;;;;;;;1.05;0.90;;;21.80;69.80;;;;;;5032154;28;20547;-74
2023/03/20 01:37:48;;;;;;;1.58;1.00;;;21.80;69.90;;;;;;5047212;28;20063;-73
2023/03/20 01:40:44;;;;;;;0.98;0.85;;;21.80;69.90;;;;;;5030830;28;20120;-74
2023/03/20 01:43:15;;;;;;;1.45;1.02;;;21.80;70.00;;;;;;5049653;28;20076;-74
2023/03/20 01:46:00;;;;;;;2.10;1.08;;;21.80;70.00;;;;;;5047130;28;20029;-74
2023/03/20 01:48:34;;;;;;;1.45;0.93;;;21.80;70.10;;;;;;5059852;28;20017;-74
2023/03/20 01:51:00;;;;;;;1.10;0.93;;;21.80;70.10;;;;;;5045977;28;20133;-67
2023/03/20 01:53:26;;;;;;;1.13;0.88;;;21.80;70.20;;;;;;5032141;28;20101;-67
2023/03/20 01:55:53;;;;;;;2.80;1.00;;;21.80;70.20;;;;;;5064072;28;20037;-67
2023/03/20 01:58:23;;;;;;;2.40;1.10;;;21.80;70.20;;;;;;5046975;28;20009;-67
2023/03/20 02:00:49;;;;;;;2.33;1.10;;;21.80;70.30;;;;;;5062942;28;20053;-67
2023/03/20 02:03:15;;;;;;;1.48;1.00;;;21.80;70.30;;;;;;5032116;28;20056;-67
2023/03/20 02:05:40;;;;;;;1.67;1.20;;;21.80;70.30;;;;;;5047039;28;20206;-67
2023/03/20 02:08:22;;;;;;;0.90;0.85;;;21.80;70.30;;;;;;5047311;28;20041;-67
2023/03/20 02:10:48;;;;;;;1.50;0.90;;;21.90;70.30;;;;;;5047081;28;20025;-67
2023/03/20 02:13:14;;;;;;;1.83;1.00;;;21.80;70.40;;;;;;5083663;28;20033;-67
2023/03/20 02:16:13;;;;;;;1.73;0.90;;;21.80;70.30;;;;;;5050173;28;20409;-67
2023/03/20 02:18:40;;;;;;;0.90;0.82;;;21.90;70.30;;;;;;5045423;28;20033;-67
2023/03/20 02:21:33;;;;;;;1.05;0.82;;;21.80;70.40;;;;;;5016620;28;20083;-67
2023/03/20 02:24:14;;;;;;;1.23;0.90;;;21.80;70.20;;;;;;5033200;28;20108;-67
2023/03/20 02:26:58;;;;;;;1.27;1.17;;;21.80;70.20;;;;;;5017867;28;20037;-67
2023/03/20 02:29:49;;;;;;;2.50;0.93;;;21.80;70.20;;;;;;5033188;28;20502;-67
2023/03/20 02:32:24;;;;;;;1.23;0.90;;;21.80;70.20;;;;;;5033251;28;20521;-67
2023/03/20 02:35:01;;;;;;;2.08;1.08;;;21.90;70.30;;;;;;5033040;28;20033;-67
2023/03/20 02:37:32;;;;;;;1.80;1.10;;;21.80;70.20;;;;;;5033124;28;20041;-67
2023/03/20 02:40:32;;;;;;;1.13;1.00;;;21.90;70.20;;;;;;5032941;28;20033;-67
2023/03/20 02:43:30;;;;;;;1.75;0.90;;;21.80;70.10;;;;;;4993137;28;20533;-67
2023/03/20 02:45:58;;;;;;;1.58;0.82;;;21.80;70.20;;;;;;4938530;29;20039;-67
2023/03/20 02:48:26;;;;;;;1.95;1.10;;;21.90;70.20;;;;;;4938715;29;20608;-67
2023/03/20 02:50:55;;;;;;;1.33;0.90;;;21.90;70.20;;;;;;4938520;29;20113;-67
2023/03/20 02:53:41;;;;;;;2.20;0.82;;;21.80;70.20;;;;;;4954465;28;20451;-68
2023/03/20 02:56:11;;;;;;;1.48;0.98;;;21.80;70.10;;;;;;4954391;29;20030;-67
2023/03/20 02:59:01;;;;;;;1.85;0.90;;;21.80;70.10;;;;;;4954407;29;20114;-67
2023/03/20 03:01:32;;;;;;;2.58;0.98;;;21.80;70.10;;;;;;4953072;29;20074;-67
2023/03/20 03:04:01;;;;;;;1.33;0.90;;;21.90;70.10;;;;;;4954058;29;20047;-68
2023/03/20 03:06:31;;;;;;;2.78;0.70;;;21.80;70.10;;;;;;4970502;28;20130;-67
2023/03/20 03:09:02;;;;;;;3.20;0.70;;;21.90;70.20;;;;;;4954006;29;20036;-67
2023/03/20 03:11:29;;;;;;;1.92;0.80;;;21.80;70.10;;;;;;4953763;29;20114;-67
2023/03/20 03:13:55;;;;;;;1.70;0.80;;;21.80;70.20;;;;;;4970352;28;20063;-68
2023/03/20 03:16:25;;;;;;;1.00;0.90;;;21.80;70.20;;;;;;4970371;28;20456;-67
2023/03/20 03:18:56;;;;;;;0.80;0.80;;;21.80;70.20;;;;;;4982976;28;20034;-67
2023/03/20 03:21:22;;;;;;;1.63;0.90;;;21.80;70.30;;;;;;4995946;28;20433;-67
2023/03/20 03:23:48;;;;;;;1.13;0.70;;;21.80;70.30;;;;;;5029409;28;20060;-67
2023/03/20 03:26:41;;;;;;;2.40;1.25;;;21.80;70.50;;;;;;5049508;28;20018;-68
2023/03/20 03:29:11;;;;;;;1.20;0.70;;;21.80;70.50;;;;;;5033612;28;20049;-67
2023/03/20 03:31:36;;;;;;;3.60;0.82;;;21.80;70.50;;;;;;5049629;28;20096;-67
2023/03/20 03:34:02;;;;;;;2.33;0.90;;;21.80;70.60;;;;;;5049341;28;20033;-67
2023/03/20 03:36:43;;;;;;;3.28;0.95;;;21.90;70.60;;;;;;5066057;28;20020;-67
2023/03/20 03:39:18;;;;;;;0.93;0.80;;;21.80;70.50;;;;;;5033588;28;20112;-67
2023/03/20 03:42:10;;;;;;;1.38;0.70;;;21.90;70.60;;;;;;5034024;28;20051;-67
2023/03/20 03:44:46;;;;;;;1.55;0.90;;;21.90;70.60;;;;;;5033878;28;20038;-67
2023/03/20 03:47:22;;;;;;;0.80;0.80;;;21.80;70.50;;;;;;5033743;28;20071;-67
2023/03/20 03:49:54;;;;;;;2.55;0.80;;;21.80;70.60;;;;;;5065609;28;20069;-67
2023/03/20 03:52:21;;;;;;;2.38;0.80;;;21.90;70.70;;;;;;5065594;28;20054;-67
2023/03/20 03:54:56;;;;;;;0.90;0.80;;;21.80;70.70;;;;;;5048858;28;20043;-67
2023/03/20 03:57:26;;;;;;;1.08;0.68;;;21.90;70.70;;;;;;5048814;28;20028;-67
2023/03/20 03:59:52;;;;;;;0.88;0.70;;;21.80;70.70;;;;;;5048550;28;20025;-67
2023/03/20 04:02:18;;;;;;;0.77;0.77;;;21.80;70.70;;;;;;5049037;28;20028;-68
2023/03/20 04:04:45;;;;;;;2.60;0.85;;;21.90;70.80;;;;;;5065588;28;20032;-67
2023/03/20 04:07:13;;;;;;;0.80;0.70;;;21.90;70.80;;;;;;5048604;28;20029;-67
2023/03/20 04:09:40;;;;;;;0.75;0.60;;;21.80;70.80;;;;;;5064696;28;20516;-68
2023/03/20 04:12:08;;;;;;;0.80;0.80;;;21.80;70.70;;;;;;5060411;28;20025;-68
2023/03/20 04:14:33;;;;;;;0.80;0.52;;;21.90;70.80;;;;;;5052044;28;20009;-67
2023/03/20 04:16:59;;;;;;;0.82;0.70;;;21.80;70.70;;;;;;5053180;28;20021;-68
2023/03/20 04:19:24;;;;;;;0.88;0.70;;;21.80;70.70;;;;;;5052077;28;20029;-68
2023/03/20 04:21:50;;;;;;;0.82;0.70;;;21.80;70.70;;;;;;5053158;28;20032;-68
2023/03/20 04:24:16;;;;;;;1.00;0.90;;;21.80;70.70;;;;;;5052852;28;20029;-68
2023/03/20 04:26:42;;;;;;;0.98;0.80;;;21.80;70.70;;;;;;5052002;28;20063;-67
2023/03/20 04:29:07;;;;;;;1.48;0.77;;;21.80;70.70;;;;;;5052679;28;20036;-68
2023/03/20 04:31:33;;;;;;;1.55;0.90;;;21.80;70.70;;;;;;5053165;28;20017;-68
2023/03/20 04:33:59;;;;;;;0.95;0.70;;;21.90;70.80;;;;;;5051869;28;20059;-67
2023/03/20 04:36:25;;;;;;;1.10;0.90;;;21.80;70.80;;;;;;5052819;28;20013;-68
2023/03/20 04:38:50;;;;;;;1.13;0.70;;;21.80;70.80;;;;;;5052716;28;20021;-68
2023/03/20 04:41:16;;;;;;;0.50;0.47;;;21.80;70.90;;;;;;5052264;28;20028;-68
2023/03/20 04:43:41;;;;;;;1.00;0.70;;;21.80;71.00;;;;;;5052738;28;20404;-68
2023/03/20 04:46:07;;;;;;;3.38;0.93;;;21.80;70.90;;;;;;5052864;28;20063;-68
2023/03/20 04:48:33;;;;;;;4.30;0.80;;;21.90;71.00;;;;;;5051461;28;20021;-68
2023/03/20 04:50:58;;;;;;;2.15;0.70;;;21.90;71.00;;;;;;5052361;28;20055;-68
2023/03/20 04:53:24;;;;;;;1.02;0.80;;;21.80;71.00;;;;;;5052328;28;20029;-67
2023/03/20 04:55:50;;;;;;;1.38;0.70;;;21.80;71.00;;;;;;5052661;28;20025;-67
2023/03/20 04:58:15;;;;;;;1.17;0.73;;;21.80;71.10;;;;;;5052920;28;20061;-67
2023/03/20 05:00:42;;;;;;;1.10;0.77;;;21.80;71.10;;;;;;5052627;28;20055;-67
2023/03/20 05:03:07;;;;;;;1.20;0.85;;;21.80;71.10;;;;;;5051015;28;20488;-68
2023/03/20 05:05:36;;;;;;;0.85;0.60;;;21.80;71.10;;;;;;5051182;28;20074;-67
2023/03/20 05:08:03;;;;;;;1.13;0.70;;;21.80;71.10;;;;;;5051029;28;20025;-67
2023/03/20 05:10:29;;;;;;;0.70;0.57;;;21.80;71.10;;;;;;5052357;28;20056;-67
2023/03/20 05:12:55;;;;;;;3.30;0.88;;;21.80;71.10;;;;;;5052077;28;20063;-68
2023/03/20 05:15:20;;;;;;;1.05;0.70;;;21.80;71.20;;;;;;5084399;28;20025;-68
2023/03/20 05:17:47;;;;;;;0.77;0.60;;;21.80;71.20;;;;;;5051810;28;20021;-67
2023/03/20 05:20:13;;;;;;;2.22;0.80;;;21.80;71.20;;;;;;5032384;28;20028;-67
2023/03/20 05:22:38;;;;;;;1.40;0.88;;;21.80;71.20;;;;;;5063988;28;20033;-68
2023/03/20 05:25:04;;;;;;;0.85;0.75;;;21.80;71.20;;;;;;5032154;28;20140;-67
2023/03/20 05:27:30;;;;;;;0.93;0.70;;;21.80;71.20;;;;;;5064525;28;20119;-67
2023/03/20 05:29:56;;;;;;;1.08;0.70;;;21.80;71.30;;;;;;5064205;28;20108;-67
2023/03/20 05:32:21;;;;;;;1.55;0.77;;;21.80;71.40;;;;;;5064210;28;20021;-68
2023/03/20 05:34:47;;;;;;;2.40;0.57;;;21.80;71.50;;;;;;5067165;28;20017;-68
2023/03/20 05:37:13;;;;;;;2.58;0.63;;;21.80;71.50;;;;;;5051782;28;20029;-67
2023/03/20 05:39:38;;;;;;;0.75;0.63;;;21.80;71.50;;;;;;5052464;28;20435;-68
2023/03/20 05:42:04;;;;;;;1.00;0.68;;;21.80;71.40;;;;;;5052475;28;20107;-67
2023/03/20 05:44:30;;;;;;;1.08;0.70;;;21.80;71.50;;;;;;5051157;28;20100;-67
2023/03/20 05:46:55;;;;;;;2.65;0.82;;;21.80;71.50;;;;;;5051113;28;20052;-67
2023/03/20 05:49:21;;;;;;;1.85;0.70;;;21.70;71.50;;;;;;5051203;28;20047;-67
2023/03/20 05:51:47;;;;;;;1.10;0.70;;;21.70;71.50;;;;;;5053341;28;20100;-67
2023/03/20 05:54:12;;;;;;;1.85;0.70;;;21.70;71.40;;;;;;5056323;28;20445;-68
2023/03/20 05:56:38;;;;;;;1.50;0.70;;;21.70;71.30;;;;;;5055063;28;20488;-67
2023/03/20 05:59:04;;;;;;;3.08;0.93;;;21.60;71.10;;;;;;5056332;28;20029;-67
2023/03/20 06:01:30;;;;;;;1.75;0.70;;;21.60;71.20;;;;;;5055096;28;20032;-67
2023/03/20 06:03:55;;;;;;;0.77;0.60;;;21.60;71.40;;;;;;5056219;28;20542;-67
2023/03/20 06:06:21;;;;;;;1.70;0.75;;;21.60;71.30;;;;;;5054828;28;20029;-67
2023/03/20 06:08:47;;;;;;;1.63;0.70;;;21.60;71.30;;;;;;5055115;28;20017;-67
2023/03/20 06:11:12;;;;;;;1.17;0.75;;;21.50;71.40;;;;;;5055802;28;20030;-67
2023/03/20 06:13:38;;;;;;;1.00;0.70;;;21.50;71.60;;;;;;5054816;28;20499;-68
2023/03/20 06:16:04;;;;;;;1.02;0.60;;;21.50;71.60;;;;;;5054872;28;20052;-67
2023/03/20 06:18:30;;;;;;;2.38;0.60;;;21.50;71.70;;;;;;5055659;28;20420;-67
2023/03/20 06:20:56;;;;;;;2.53;0.77;;;21.40;71.70;;;;;;5056043;28;20033;-67
2023/03/20 06:23:21;;;;;;;0.57;0.55;;;21.40;71.80;;;;;;5054826;28;20017;-67
2023/03/20 06:25:47;;;;;;;1.65;0.80;;;21.40;71.80;;;;;;5054499;28;20412;-67
2023/03/20 06:28:13;;;;;;;1.30;0.60;;;21.40;71.90;;;;;;5054576;28;20485;-67
2023/03/20 06:30:38;;;;;;;0.73;0.50;;;21.30;71.80;;;;;;5054528;28;20112;-67
2023/03/20 06:33:07;;;;;;;0.93;0.52;;;21.30;71.90;;;;;;5054290;28;20040;-67
2023/03/20 06:35:33;;;;;;;2.25;0.70;;;21.30;71.90;;;;;;5055728;28;20025;-68
2023/03/20 06:37:58;;;;;;;0.52;0.52;;;21.30;71.90;;;;;;5055499;28;20104;-67
2023/03/20 06:40:26;;;;;;;1.77;0.82;;;21.20;72.00;;;;;;5054314;28;20107;-67
2023/03/20 06:42:52;;;;;;;0.68;0.52;;;21.20;72.00;;;;;;5054240;28;20021;-67
2023/03/20 06:45:17;;;;;;;0.50;0.50;;;21.20;72.10;;;;;;5052374;28;20043;-67
2023/03/20 06:47:43;;;;;;;1.42;0.80;;;21.20;72.10;;;;;;5053576;28;20607;-67
2023/03/20 06:50:09;;;;;;;0.85;0.68;;;21.20;72.10;;;;;;5053622;28;20025;-67
2023/03/20 06:52:35;;;;;;;0.93;0.63;;;21.10;72.10;;;;;;5053427;28;20505;-67
2023/03/20 06:55:00;;;;;;;0.82;0.60;;;21.10;72.20;;;;;;5053621;28;20040;-67
2023/03/20 06:57:26;;;;;;;0.70;0.50;;;21.10;72.30;;;;;;5053601;28;20017;-68
2023/03/20 06:59:52;;;;;;;1.50;0.90;;;21.10;72.30;;;;;;5053478;28;20035;-67
2023/03/20 07:02:18;;;;;;;0.77;0.50;;;21.10;70.10;;;;;;5054185;28;20063;-67
2023/03/20 07:04:43;;;;;;;0.93;0.70;;;20.90;67.40;;;;;;5054817;28;20431;-68
2023/03/20 07:07:10;;;;;;;1.38;0.70;;;20.90;67.70;;;;;;5053342;28;20576;-67
2023/03/20 07:09:37;;;;;;;1.13;0.40;;;20.80;68.00;;;;;;5053482;28;20033;-68
2023/03/20 07:12:04;;;;;;;1.27;0.60;;;20.80;67.60;;;;;;5053338;28;20100;-69
2023/03/20 07:14:30;;;;;;;1.75;0.70;;;20.70;67.00;;;;;;5054156;28;20508;-67
2023/03/20 07:16:55;;;;;;;1.00;0.52;;;20.70;66.90;;;;;;5054348;28;20060;-69
2023/03/20 07:19:21;;;;;;;1.13;0.68;;;20.60;66.70;;;;;;5039442;28;20083;-68
2023/03/20 07:21:47;;;;;;;2.47;0.77;;;20.60;66.70;;;;;;5034204;28;20029;-69
2023/03/20 07:24:12;;;;;;;0.40;0.40;;;20.60;66.60;;;;;;5053160;28;20029;-68
2023/03/20 07:26:39;;;;;;;0.98;0.60;;;20.60;66.40;;;;;;5054685;28;20057;-69
2023/03/20 07:29:05;;;;;;;0.95;0.60;;;20.50;66.40;;;;;;5053290;28;20050;-69
2023/03/20 07:31:31;;;;;;;2.72;0.63;;;20.50;66.50;;;;;;5053324;28;20099;-68
2023/03/20 07:33:57;;;;;;;1.15;0.77;;;20.50;66.50;;;;;;5053530;28;20103;-68
2023/03/20 07:36:22;;;;;;;0.57;0.50;;;20.40;66.30;;;;;;5054305;28;20500;-68
2023/03/20 07:38:48;;;;;;;1.25;0.73;;;20.40;66.40;;;;;;5053432;28;20029;-68
2023/03/20 07:41:14;;;;;;;0.70;0.43;;;20.40;66.50;;;;;;5054296;28;20052;-68
2023/03/20 07:43:39;;;;;;;4.57;1.20;;;20.40;66.40;;;;;;5053008;28;20040;-68
2023/03/20 07:46:06;;;;;;;4.82;1.10;;;20.40;67.00;;;;;;5054144;28;20385;-67
2023/03/20 07:48:33;;;;;;;4.63;1.25;;;20.40;67.40;;;;;;5052204;28;20029;-67
2023/03/20 07:50:58;;;;;;;3.72;1.00;;;20.30;67.40;;;;;;5051259;28;20048;-67
2023/03/20 07:53:24;;;;;;;1.70;0.70;;;20.30;67.50;;;;;;5053670;28;20025;-68
2023/03/20 07:55:50;;;;;;;1.83;0.73;;;20.30;67.50;;;;;;5052405;28;20014;-67
2023/03/20 07:58:15;;;;;;;2.83;0.88;;;20.30;67.60;;;;;;5052354;28;20028;-67
2023/03/20 08:00:42;;;;;;;2.75;1.23;;;20.30;67.70;;;;;;5051718;28;20025;-67
2023/03/20 08:03:07;;;;;;;2.22;0.85;;;20.20;67.60;;;;;;5035763;28;20031;-68
2023/03/20 08:05:33;;;;;;;1.20;0.73;;;20.20;67.80;;;;;;5051570;28;20025;-67
2023/03/20 08:07:59;;;;;;;2.47;1.00;;;20.20;67.70;;;;;;5041815;28;20087;-67
2023/03/20 08:10:24;;;;;;;1.80;0.70;;;20.20;67.80;;;;;;5065223;28;20033;-67
2023/03/20 08:12:50;;;;;;;1.35;0.68;;;20.20;67.60;;;;;;5051371;28;20032;-67
2023/03/20 08:15:16;;;;;;;3.25;0.85;;;20.10;67.80;;;;;;5052415;28;20198;-67
2023/03/20 08:17:45;;;;;;;3.95;0.95;;;20.10;67.80;;;;;;5051763;28;20021;-67
2023/03/20 08:20:11;;;;;;;2.05;0.75;;;20.10;67.70;;;;;;5052033;28;20126;-67
2023/03/20 08:22:37;;;;;;;2.00;0.90;;;20.10;67.80;;;;;;5053064;28;20477;-67
2023/03/20 08:25:03;;;;;;;3.78;0.95;;;20.10;67.90;;;;;;5053036;28;20045;-67
2023/03/20 08:27:29;;;;;;;3.20;1.15;;;20.10;67.90;;;;;;5035387;28;20029;-67
2023/03/20 08:29:55;;;;;;;2.25;0.65;;;20.00;67.90;;;;;;5051577;28;20512;-67
2023/03/20 08:32:21;;;;;;;1.13;0.57;;;20.00;67.90;;;;;;5051741;28;20025;-67
2023/03/20 08:34:46;;;;;;;3.25;0.88;;;20.00;67.90;;;;;;5052749;28;20021;-67
2023/03/20 08:37:12;;;;;;;3.60;1.00;;;20.00;68.00;;;;;;5052810;28;20032;-67
2023/03/20 08:39:38;;;;;;;1.75;0.80;;;20.00;68.10;;;;;;5051620;28;20037;-67
2023/03/20 08:42:05;;;;;;;2.00;0.65;;;19.90;68.00;;;;;;5051564;28;20021;-67
2023/03/20 08:44:31;;;;;;;1.58;0.80;;;19.90;68.20;;;;;;5051202;28;20025;-67
2023/03/20 08:46:56;;;;;;;4.97;1.10;;;19.90;68.20;;;;;;5051719;28;20090;-67
2023/03/20 08:49:22;;;;;;;2.40;0.73;;;19.90;68.20;;;;;;5051376;28;20044;-67
2023/03/20 08:51:47;;;;;;;1.50;0.88;;;19.90;68.30;;;;;;5052530;28;20044;-68
2023/03/20 08:54:15;;;;;;;2.15;0.93;;;19.90;68.30;;;;;;5051436;28;20493;-67
2023/03/20 08:56:41;;;;;;;2.83;0.93;;;19.80;68.30;;;;;;5034931;28;20025;-68
2023/03/20 08:59:06;;;;;;;0.93;0.60;;;19.80;68.30;;;;;;5051221;28;20055;-67
2023/03/20 09:01:32;;;;;;;1.40;0.73;;;19.80;68.40;;;;;;5050948;28;20036;-68
2023/03/20 09:03:57;;;;;;;2.10;0.80;;;19.80;68.50;;;;;;5052414;28;20370;-67
2023/03/20 09:06:23;;;;;;;1.15;0.93;;;19.80;68.40;;;;;;5050962;28;20508;-67
2023/03/20 09:08:49;;;;;;;1.98;0.98;;;19.70;68.50;;;;;;5032446;28;20025;-67
2023/03/20 09:11:14;;;;;;;2.60;0.60;;;19.70;68.60;;;;;;5032298;28;20029;-67
2023/03/20 09:13:40;;;;;;;2.70;0.98;;;19.70;68.60;;;;;;5064150;28;20048;-67
2023/03/20 09:16:06;;;;;;;1.48;0.75;;;19.70;68.70;;;;;;5032333;28;20031;-67
2023/03/20 09:18:32;;;;;;;1.67;0.75;;;19.70;68.60;;;;;;5064064;28;20079;-67
2023/03/20 09:20:57;;;;;;;2.45;0.68;;;19.70;68.70;;;;;;5032377;28;20033;-67
2023/03/20 09:23:23;;;;;;;1.75;0.77;;;19.70;68.70;;;;;;5064255;28;20021;-68
2023/03/20 09:25:49;;;;;;;1.83;0.77;;;19.60;68.70;;;;;;5063728;28;20084;-67
2023/03/20 09:28:14;;;;;;;1.23;0.60;;;19.60;68.70;;;;;;5031883;28;20033;-67
2023/03/20 09:30:42;;;;;;;1.95;0.70;;;19.60;68.80;;;;;;5064129;28;20029;-67
2023/03/20 09:33:07;;;;;;;1.15;0.77;;;19.60;68.80;;;;;;5032167;28;20025;-67
2023/03/20 09:35:33;;;;;;;1.05;0.80;;;19.60;68.70;;;;;;5030889;28;20028;-67
2023/03/20 09:37:59;;;;;;;1.33;0.68;;;19.60;68.80;;;;;;5064187;28;20087;-68
2023/03/20 09:40:51;;;;;;;1.15;0.60;;;19.60;68.80;;;;;;5064041;28;20375;-67
2023/03/20 09:43:52;;;;;;;2.42;0.90;;;19.50;68.90;;;;;;5030616;28;20033;-67
2023/03/20 09:46:39;;;;;;;0.90;0.60;;;19.50;68.80;;;;;;5045670;28;20113;-67
2023/03/20 09:49:14;;;;;;;1.63;0.88;;;19.50;68.80;;;;;;5032019;28;20061;-67
2023/03/20 09:51:47;;;;;;;1.23;0.60;;;19.50;68.90;;;;;;5063862;28;20026;-68
2023/03/20 09:54:37;;;;;;;1.63;0.60;;;19.50;69.00;;;;;;5063376;28;20053;-67
2023/03/20 09:57:03;;;;;;;0.90;0.60;;;19.50;68.90;;;;;;5059757;28;20036;-67
2023/03/20 09:59:28;;;;;;;1.25;0.68;;;19.50;68.90;;;;;;5049901;28;20405;-67
2023/03/20 10:02:11;;;;;;;1.17;0.68;;;19.40;68.90;;;;;;5084089;28;20025;-67
2023/03/20 10:04:37;;;;;;;0.73;0.47;;;19.40;68.90;;;;;;5064823;28;20033;-67
2023/03/20 10:07:03;;;;;;;2.22;0.55;;;19.40;69.90;;;;;;5062989;28;20016;-67
2023/03/20 10:09:32;;;;;;;1.55;0.70;;;19.40;68.90;;;;;;5063764;28;20033;-67
2023/03/20 10:12:03;;;;;;;0.98;0.50;;;19.40;68.90;;;;;;5062853;28;20107;-67
2023/03/20 10:14:57;;;;;;;0.82;0.70;;;19.40;68.90;;;;;;5063757;28;20021;-67
2023/03/20 10:17:44;;;;;;;1.40;0.45;;;19.40;68.90;;;;;;5033349;28;20040;-67
2023/03/20 10:20:35;;;;;;;2.28;0.63;;;19.30;68.80;;;;;;5030568;28;20447;-67
2023/03/20 10:23:07;;;;;;;0.65;0.47;;;19.30;68.90;;;;;;5044502;28;20032;-67
2023/03/20 10:25:41;;;;;;;1.00;0.50;;;19.30;68.90;;;;;;5031495;28;20036;-67
2023/03/20 10:28:15;;;;;;;2.40;0.60;;;19.30;68.70;;;;;;5062799;28;20375;-67
2023/03/20 10:31:07;;;;;;;1.42;0.80;;;19.30;68.70;;;;;;5063662;28;20389;-67
2023/03/20 10:33:54;;;;;;;1.13;0.50;;;19.30;68.60;;;;;;5063003;28;20028;-67
2023/03/20 10:36:22;;;;;;;1.45;0.63;;;19.30;68.80;;;;;;5063638;28;20022;-67
2023/03/20 10:38:56;;;;;;;1.00;0.50;;;19.30;68.70;;;;;;5033966;28;20025;-67
2023/03/20 10:41:26;;;;;;;0.40;0.40;;;19.30;68.80;;;;;;5049584;28;20028;-67
2023/03/20 10:43:52;;;;;;;2.13;0.55;;;19.20;68.70;;;;;;5050191;28;20021;-67
2023/03/20 10:46:21;;;;;;;0.70;0.52;;;19.20;68.70;;;;;;5050693;28;20051;-67
2023/03/20 10:48:56;;;;;;;0.45;0.45;;;19.20;68.80;;;;;;5067164;28;20060;-67
2023/03/20 10:51:24;;;;;;;0.50;0.50;;;19.20;68.70;;;;;;5034630;28;20038;-67
2023/03/20 10:54:00;;;;;;;1.20;0.40;;;19.20;68.70;;;;;;5066255;28;20071;-67
2023/03/20 10:56:39;;;;;;;1.48;0.55;;;19.20;68.70;;;;;;5066011;28;20021;-67
2023/03/20 10:59:17;;;;;;;1.17;0.40;;;19.20;68.70;;;;;;5067004;28;20087;-67
2023/03/20 11:01:42;;;;;;;1.42;0.45;;;19.10;68.70;;;;;;5065111;28;20030;-68
2023/03/20 11:04:08;;;;;;;0.68;0.50;;;19.10;68.70;;;;;;5033697;28;20123;-67
2023/03/20 11:06:43;;;;;;;0.40;0.30;;;19.20;68.70;;;;;;5033314;28;20516;-67
2023/03/20 11:09:19;;;;;;;0.75;0.50;;;19.20;68.70;;;;;;5037285;28;20025;-67
2023/03/20 11:11:46;;;;;;;0.85;0.52;;;19.10;68.70;;;;;;5037188;28;20096;-67
2023/03/20 11:14:24;;;;;;;1.17;0.40;;;19.10;68.60;;;;;;5054500;28;20104;-67
2023/03/20 11:16:51;;;;;;;1.25;0.50;;;19.10;68.60;;;;;;5053137;28;20013;-67
2023/03/20 11:19:18;;;;;;;0.50;0.40;;;19.10;68.70;;;;;;5053217;28;20037;-67
2023/03/20 11:21:46;;;;;;;0.60;0.40;;;19.10;68.70;;;;;;5036491;28;20100;-67
2023/03/20 11:24:41;;;;;;;0.88;0.47;;;19.10;68.70;;;;;;5036609;28;20021;-67
2023/03/20 11:27:08;;;;;;;0.38;0.30;;;19.00;68.70;;;;;;5051705;28;20060;-67
2023/03/20 11:29:34;;;;;;;1.05;0.60;;;19.10;68.70;;;;;;5053006;28;20028;-67
2023/03/20 11:32:23;;;;;;;0.60;0.40;;;19.00;68.70;;;;;;5036422;28;20044;-67
2023/03/20 11:34:49;;;;;;;0.50;0.40;;;19.00;68.70;;;;;;5050838;28;20045;-67
2023/03/20 11:37:32;;;;;;;0.95;0.47;;;19.00;68.70;;;;;;5036279;28;20396;-67
2023/03/20 11:40:11;;;;;;;0.93;0.40;;;19.00;68.70;;;;;;5052790;28;20079;-67
2023/03/20 11:42:37;;;;;;;1.38;0.50;;;19.00;68.70;;;;;;5052522;28;20025;-67
2023/03/20 11:45:25;;;;;;;0.68;0.40;;;19.00;68.80;;;;;;5019507;28;20028;-67
2023/03/20 11:47:52;;;;;;;0.98;0.40;;;19.00;68.80;;;;;;5052635;28;20029;-67
2023/03/20 11:50:31;;;;;;;0.57;0.38;;;19.00;68.80;;;;;;5035332;28;20021;-67
2023/03/20 11:52:57;;;;;;;0.63;0.30;;;18.90;68.70;;;;;;5052552;28;20087;-67
2023/03/20 11:55:28;;;;;;;1.00;0.60;;;18.90;68.70;;;;;;5052653;28;20029;-67
2023/03/20 11:58:03;;;;;;;0.52;0.20;;;19.00;68.80;;;;;;5036248;28;20039;-67
2023/03/20 12:00:36;;;;;;;1.10;0.40;;;18.90;68.70;;;;;;5052336;28;20017;-67
2023/03/20 12:03:02;;;;;;;0.82;0.60;;;18.90;68.80;;;;;;5052313;28;20052;-67
2023/03/20 12:05:35;;;;;;;0.38;0.20;;;18.90;69.70;;;;;;5052413;28;20028;-67
2023/03/20 12:08:36;;;;;;;1.13;0.50;;;18.90;68.80;;;;;;5039658;28;20114;-67
2023/03/20 12:11:36;;;;;;;0.52;0.30;;;18.90;68.70;;;;;;5033074;28;20507;-67
2023/03/20 12:14:02;;;;;;;0.73;0.50;;;18.90;68.80;;;;;;5060555;28;20056;-67
2023/03/20 12:16:29;;;;;;;0.65;0.50;;;18.90;68.80;;;;;;5065220;28;20018;-67
2023/03/20 12:18:59;;;;;;;0.93;0.45;;;18.90;68.90;;;;;;5048397;28;20024;-67
2023/03/20 12:21:38;;;;;;;1.08;0.60;;;18.90;68.90;;;;;;5065195;28;20099;-67
2023/03/20 12:24:16;;;;;;;0.85;0.38;;;18.80;68.80;;;;;;5048482;28;20075;-67
2023/03/20 12:26:53;;;;;;;0.40;0.30;;;18.90;68.90;;;;;;5065063;28;20021;-67
2023/03/20 12:29:39;;;;;;;0.52;0.28;;;18.90;68.90;;;;;;5047581;28;20057;-67
2023/03/20 12:32:13;;;;;;;1.90;0.77;;;18.80;68.80;;;;;;5047853;28;20021;-67
2023/03/20 12:35:05;;;;;;;0.88;0.30;;;18.80;68.90;;;;;;5047900;28;20029;-67
2023/03/20 12:37:33;;;;;;;0.40;0.30;;;18.80;68.80;;;;;;5032583;28;20060;-67
2023/03/20 12:39:59;;;;;;;0.40;0.25;;;18.80;68.80;;;;;;5064375;28;20028;-67
2023/03/20 12:42:44;;;;;;;0.85;0.40;;;18.80;68.90;;;;;;5064878;28;20029;-67
2023/03/20 12:45:10;;;;;;;0.63;0.30;;;18.80;68.90;;;;;;5032794;28;20025;-67
2023/03/20 12:48:00;;;;;;;0.30;0.22;;;18.80;68.90;;;;;;5032942;28;20127;-67
2023/03/20 12:50:39;;;;;;;1.00;0.40;;;18.80;68.80;;;;;;5032573;28;20029;-67
2023/03/20 12:53:23;;;;;;;0.98;0.40;;;18.80;68.90;;;;;;5047617;28;20029;-67
2023/03/20 12:56:14;;;;;;;0.75;0.40;;;18.80;68.90;;;;;;5032590;28;20033;-67
2023/03/20 12:59:07;;;;;;;0.20;0.20;;;18.80;68.90;;;;;;5030347;28;20037;-67
2023/03/20 13:01:43;;;;;;;0.57;0.30;;;18.70;68.80;;;;;;5050082;28;20065;-67
2023/03/20 13:04:26;;;;;;;0.68;0.40;;;18.70;68.90;;;;;;5033870;28;20044;-67